Flight Track Log - Related Links

Times and Time Zones

All times are in EST time to prevent confusion due to time zone crossing. See the UAL33 flight status page for this flight to view local times or setup timezone preferences in your user account.

Time Position Orientation Groundspeed Altitude Reporting Facility
EST Latitude Longitude Course Direction KTS MPH feet Rate Location/Type
Sat 04:28:00 AM 36.1142 141.0329 104° East  Level Estimated
Sat 04:29:00 AM 36.2011 141.1954 98° East  Level Estimated
Sat 04:30:00 AM 36.0920 141.3358 134° Southeast  Level FlightAware Approximate
Sat 04:31:00 AM 36.1785 141.4986 102° East  Level Estimated
Sat 04:32:00 AM 36.2648 141.6617 97° East  Level Estimated
Sat 04:33:00 AM 36.3508 141.8252 103° East  Level Estimated
Sat 04:34:00 AM 36.4366 141.9890 104° East  Level Estimated
Sat 04:35:00 AM 36.5223 142.1532 101° East  Level Estimated
Sat 04:36:00 AM 36.3995 142.2756 141° Southeast  Level FlightAware Approximate
Sat 04:37:00 AM 36.2766 142.3976 141° Southeast  Level FlightAware Approximate
Sat 04:38:00 AM 36.3619 142.5618 101° East  Level Estimated
Sat 04:39:00 AM 36.2428 142.6894 139° Southeast  Level FlightAware Approximate
Sat 04:40:00 AM 36.3277 142.8537 87° East  Level Estimated
Sat 04:41:00 AM 36.2581 143.0288 116° Southeast  Level FlightAware Approximate
Sat 04:42:00 AM 36.1883 143.2036 116° Southeast  Level FlightAware Approximate
Sat 04:43:00 AM 36.1183 143.3781 116° Southeast  Level FlightAware Approximate
Sat 04:44:00 AM 36.0479 143.5523 116° Southeast  Level FlightAware Approximate
Sat 04:45:00 AM 35.9774 143.7262 117° Southeast  Level FlightAware Approximate
Sat 04:46:00 AM 35.9066 143.8997 117° Southeast  Level FlightAware Approximate
Sat 04:47:00 AM 35.8355 144.0730 117° Southeast  Level FlightAware Approximate
Sat 04:48:00 AM 35.9190 144.2375 88° East  Level Estimated
Sat 04:49:00 AM 35.8587 144.4169 112° Southeast  Level FlightAware Approximate
Sat 04:50:00 AM 35.7981 144.5960 113° Southeast  Level FlightAware Approximate
Sat 04:51:00 AM 35.7373 144.7748 113° Southeast  Level FlightAware Approximate
Sat 04:52:00 AM 35.8201 144.9398 77° East  Level Estimated
Sat 04:53:00 AM 35.8126 145.1336 93° East  Level FlightAware Approximate
Sat 04:54:00 AM 35.8048 145.3274 93° East  Level FlightAware Approximate
Sat 04:55:00 AM 35.7967 145.5211 93° East  Level FlightAware Approximate
Sat 04:56:00 AM 35.7883 145.7148 93° East  Level FlightAware Approximate
Sat 04:57:00 AM 35.7796 145.9085 93° East  Level FlightAware Approximate
Sat 04:58:00 AM 35.7707 146.1006 93° East  Level FlightAware Approximate
Sat 04:59:00 AM 35.7614 146.2928 93° East  Level FlightAware Approximate
Sat 05:00:00 AM 35.7519 146.4849 93° East  Level FlightAware Approximate
Sat 05:01:00 AM 35.7420 146.6769 94° East  Level FlightAware Approximate
Sat 05:02:00 AM 35.8221 146.8422 78° East  Level Estimated
Sat 05:03:00 AM 35.8353 147.0341 85° East  Level FlightAware Approximate
Sat 05:04:00 AM 35.8482 147.2261 85° East  Level FlightAware Approximate
Sat 05:05:00 AM 35.8608 147.4181 85° East  Level FlightAware Approximate
Sat 05:06:00 AM 35.8730 147.6102 85° East  Level FlightAware Approximate
Sat 05:07:00 AM 35.8850 147.8024 86° East  Level FlightAware Approximate
Sat 05:08:00 AM 35.8967 147.9946 86° East  Level FlightAware Approximate
Sat 05:09:00 AM 35.9081 148.1869 86° East  Level FlightAware Approximate
Sat 05:10:00 AM 35.9191 148.3793 86° East  Level FlightAware Approximate
Sat 05:11:00 AM 35.9299 148.5717 86° East  Level FlightAware Approximate
Sat 05:12:00 AM 35.9403 148.7641 86° East  Level FlightAware Approximate
Sat 05:13:00 AM 36.0180 148.9315 87° East  Level Estimated
Sat 05:14:00 AM 36.0264 149.1243 87° East  Level FlightAware Approximate
Sat 05:15:00 AM 36.0345 149.3172 87° East  Level FlightAware Approximate
Sat 05:16:00 AM 36.0423 149.5101 87° East  Level FlightAware Approximate
Sat 05:17:00 AM 36.0498 149.7030 87° East  Level FlightAware Approximate
Sat 05:18:00 AM 36.0570 149.8960 87° East  Level FlightAware Approximate
Sat 05:19:00 AM 36.0639 150.0890 87° East  Level FlightAware Approximate
Sat 05:20:00 AM 36.0704 150.2820 88° East  Level FlightAware Approximate
Sat 05:21:00 AM 36.0767 150.4751 88° East  Level FlightAware Approximate
Sat 05:22:00 AM 36.0826 150.6681 88° East  Level FlightAware Approximate
Sat 05:23:00 AM 36.0882 150.8613 88° East  Level FlightAware Approximate
Sat 05:24:00 AM 36.0936 151.0544 88° East  Level FlightAware Approximate
Sat 05:25:00 AM 36.0986 151.2476 88° East  Level FlightAware Approximate
Sat 05:26:00 AM 36.1033 151.4408 88° East  Level FlightAware Approximate
Sat 05:27:00 AM 36.1077 151.6340 88° East  Level FlightAware Approximate
Sat 05:28:00 AM 36.1117 151.8272 88° East  Level FlightAware Approximate
Sat 05:29:00 AM 36.1155 152.0205 89° East  Level FlightAware Approximate
Sat 05:30:00 AM 36.1190 152.2138 89° East  Level FlightAware Approximate
Sat 05:31:00 AM 36.1221 152.4071 89° East  Level FlightAware Approximate
Sat 05:32:00 AM 36.1250 152.6004 89° East  Level FlightAware Approximate
Sat 05:33:00 AM 36.1275 152.7937 89° East  Level FlightAware Approximate
Sat 05:34:00 AM 36.1297 152.9870 89° East  Level FlightAware Approximate
Sat 05:35:00 AM 36.1316 153.1804 89° East  Level FlightAware Approximate
Sat 05:36:00 AM 36.1332 153.3737 89° East  Level FlightAware Approximate
Sat 05:37:00 AM 36.1345 153.5671 89° East  Level FlightAware Approximate
Sat 05:38:00 AM 36.1355 153.7604 90° East  Level FlightAware Approximate
Sat 05:39:00 AM 36.1361 153.9538 90° East  Level FlightAware Approximate
Sat 05:40:00 AM 36.1365 154.1472 90° East  Level FlightAware Approximate
Sat 05:41:00 AM 36.1365 154.3405 90° East  Level FlightAware Approximate
Sat 05:42:00 AM 36.1363 154.5339 90° East  Level FlightAware Approximate
Sat 05:43:00 AM 36.1357 154.7273 90° East  Level FlightAware Approximate
Sat 05:44:00 AM 36.1348 154.9207 90° East  Level FlightAware Approximate
Sat 05:45:00 AM 36.1336 155.1140 90° East  Level FlightAware Approximate
Sat 05:46:00 AM 36.1321 155.3074 90° East  Level FlightAware Approximate
Sat 05:47:00 AM 36.1303 155.5007 91° East  Level FlightAware Approximate
Sat 05:48:00 AM 36.1281 155.6941 91° East  Level FlightAware Approximate
Sat 05:49:00 AM 36.1257 155.8874 91° East  Level FlightAware Approximate
Sat 05:50:00 AM 36.1229 156.0807 91° East  Level FlightAware Approximate
Sat 05:51:00 AM 36.1199 156.2740 91° East  Level FlightAware Approximate
Sat 05:52:00 AM 36.1165 156.4673 91° East  Level FlightAware Approximate
Sat 05:53:00 AM 36.1128 156.6605 91° East  Level FlightAware Approximate
Sat 05:54:00 AM 36.1088 156.8538 91° East  Level FlightAware Approximate
Sat 05:55:00 AM 36.1045 157.0470 92° East  Level FlightAware Approximate
Sat 05:56:00 AM 36.0999 157.2402 92° East  Level FlightAware Approximate
Sat 05:57:00 AM 36.0950 157.4334 92° East  Level FlightAware Approximate
Sat 05:58:00 AM 36.0897 157.6265 92° East  Level FlightAware Approximate
Sat 05:59:00 AM 36.0842 157.8197 92° East  Level FlightAware Approximate
Sat 06:00:00 AM 36.0783 158.0128 92° East  Level FlightAware Approximate
Sat 06:01:00 AM 36.0722 158.2058 92° East  Level FlightAware Approximate
Sat 06:02:00 AM 36.0657 158.3989 92° East  Level FlightAware Approximate
Sat 06:03:00 AM 36.0589 158.5919 92° East  Level FlightAware Approximate
Sat 06:04:00 AM 36.0518 158.7849 93° East  Level FlightAware Approximate
Sat 06:05:00 AM 36.1186 158.9595 88° East  Level Estimated
Sat 06:06:00 AM 36.1094 159.1525 93° East  Level FlightAware Approximate
Sat 06:07:00 AM 36.0998 159.3454 93° East  Level FlightAware Approximate
Sat 06:08:00 AM 36.0899 159.5383 94° East  Level FlightAware Approximate
Sat 06:09:00 AM 36.1559 159.7136 87° East  Level Estimated
Sat 06:10:00 AM 36.1547 159.9070 90° East  Level FlightAware Approximate
Sat 06:11:00 AM 36.1533 160.1004 90° East  Level FlightAware Approximate
Sat 06:12:00 AM 36.1515 160.2938 91° East  Level FlightAware Approximate
Sat 06:13:00 AM 36.1494 160.4872 91° East  Level FlightAware Approximate
Sat 06:14:00 AM 36.1470 160.6806 91° East  Level FlightAware Approximate
Sat 06:15:00 AM 36.1443 160.8739 91° East  Level FlightAware Approximate
Sat 06:16:00 AM 36.1413 161.0673 91° East  Level FlightAware Approximate
Sat 06:17:00 AM 36.1380 161.2606 91° East  Level FlightAware Approximate
Sat 06:18:00 AM 36.1343 161.4539 91° East  Level FlightAware Approximate
Sat 06:19:00 AM 36.1304 161.6472 91° East  Level FlightAware Approximate
Sat 06:20:00 AM 36.1261 161.8405 92° East  Level FlightAware Approximate
Sat 06:21:00 AM 36.1215 162.0338 92° East  Level FlightAware Approximate
Sat 06:22:00 AM 36.1848 162.2106 89° East  Level Estimated
Sat 06:23:00 AM 36.1810 162.4041 91° East  Level FlightAware Approximate
Sat 06:24:00 AM 36.1768 162.5975 91° East  Level FlightAware Approximate
Sat 06:25:00 AM 36.1724 162.7908 92° East  Level FlightAware Approximate
Sat 06:26:00 AM 36.1676 162.9842 92° East  Level FlightAware Approximate
Sat 06:27:00 AM 36.1625 163.1776 92° East  Level FlightAware Approximate
Sat 06:28:00 AM 36.1571 163.3709 92° East  Level FlightAware Approximate
Sat 06:29:00 AM 36.1514 163.5641 92° East  Level FlightAware Approximate
Sat 06:30:00 AM 36.2130 163.7419 90° East  Level Estimated
Sat 06:31:00 AM 36.2113 163.9355 91° East  Level FlightAware Approximate
Sat 06:32:00 AM 36.2093 164.1290 91° East  Level FlightAware Approximate
Sat 06:33:00 AM 36.2070 164.3226 91° East  Level FlightAware Approximate
Sat 06:34:00 AM 36.2044 164.5161 91° East  Level FlightAware Approximate
Sat 06:35:00 AM 36.2014 164.7096 91° East  Level FlightAware Approximate
Sat 06:36:00 AM 36.1982 164.9031 91° East  Level FlightAware Approximate
Sat 06:37:00 AM 36.1946 165.0965 91° East  Level FlightAware Approximate
Sat 06:38:00 AM 36.1907 165.2900 91° East  Level FlightAware Approximate
Sat 06:39:00 AM 36.1865 165.4834 91° East  Level FlightAware Approximate
Sat 06:40:00 AM 36.1820 165.6768 92° East  Level FlightAware Approximate
Sat 06:41:00 AM 36.1772 165.8702 92° East  Level FlightAware Approximate
Sat 06:42:00 AM 36.1721 166.0636 92° East  Level FlightAware Approximate
Sat 06:43:00 AM 36.1667 166.2569 92° East  Level FlightAware Approximate
Sat 06:44:00 AM 36.1609 166.4502 92° East  Level FlightAware Approximate
Sat 06:45:00 AM 36.1549 166.6435 92° East  Level FlightAware Approximate
Sat 06:45:37 AM 36.0833 167.4667 92° East 614 707 39,000  Level Oakland Oceanic (ODAPS)
Sat 06:46:00 AM 36.1485 166.8368 92° East  Level FlightAware Approximate
Sat 06:47:00 AM 36.1419 167.0300 92° East  Level FlightAware Approximate
Sat 06:48:00 AM 36.1349 167.2232 93° East  Level FlightAware Approximate
Sat 06:49:00 AM 36.1276 167.4163 93° East  Level FlightAware Approximate
Sat 06:50:00 AM 36.1200 167.6094 93° East  Level FlightAware Approximate
Sat 06:51:00 AM 36.1121 167.8025 93° East  Level FlightAware Approximate
Sat 06:52:00 AM 36.0412 168.9451 92° East 614 707 39,000  Level FlightAware Transoceanic
Sat 06:53:00 AM 36.0337 169.1562 93° East 614 707 39,000  Level FlightAware Transoceanic
Sat 06:54:00 AM 36.0258 169.3672 93° East 614 707 39,000  Level FlightAware Transoceanic
Sat 06:55:00 AM 36.0176 169.5782 93° East 614 707 39,000  Level FlightAware Transoceanic
Sat 06:56:00 AM 36.0090 169.7891 93° East 614 707 39,000  Level FlightAware Transoceanic
Sat 06:57:00 AM 36.0000 170.0000 87° East 614 707 39,000  Level FlightAware Transoceanic
Sat 06:58:00 AM 36.0078 170.1920 87° East 614 707 39,000  Level FlightAware Transoceanic
Sat 06:58:33 AM 36.0167 170.2167 87° East 564 649 39,000  Level Oakland Oceanic (ODAPS)
Sat 06:59:00 AM 36.0154 170.3840 87° East 614 707 39,000  Level FlightAware Transoceanic
Sat 06:59:15 AM 36.0167 170.3667 87° East 609 701 39,000  Level Oakland Oceanic (ODAPS)
Sat 07:00:00 AM 36.0226 170.5761 87° East 614 707 39,000  Level FlightAware Transoceanic
Sat 07:01:00 AM 36.0295 170.7682 88° East 614 707 39,000  Level FlightAware Transoceanic
Sat 07:02:00 AM 36.0361 170.9603 88° East 614 707 39,000  Level FlightAware Transoceanic
Sat 07:03:00 AM 36.0424 171.1525 88° East 614 707 39,000  Level FlightAware Transoceanic
Sat 07:04:00 AM 36.0484 171.3447 88° East 614 707 39,000  Level FlightAware Transoceanic
Sat 07:05:00 AM 36.0554 171.5216 88° East 609 701 39,000  Level FlightAware Transoceanic
Sat 07:06:00 AM 36.0608 171.7142 88° East 609 701 39,000  Level FlightAware Transoceanic
Sat 07:07:00 AM 36.0658 171.9068 88° East 609 701 39,000  Level FlightAware Transoceanic
Sat 07:08:00 AM 36.0706 172.0995 88° East 609 701 39,000  Level FlightAware Transoceanic
Sat 07:09:00 AM 36.0751 172.2921 88° East 609 701 39,000  Level FlightAware Transoceanic
Sat 07:10:00 AM 36.0792 172.4848 89° East 609 701 39,000  Level FlightAware Transoceanic
Sat 07:11:00 AM 36.0830 172.6775 89° East 609 701 39,000  Level FlightAware Transoceanic
Sat 07:12:00 AM 36.0866 172.8703 89° East 609 701 39,000  Level FlightAware Transoceanic
Sat 07:13:00 AM 36.0898 173.0630 89° East 609 701 39,000  Level FlightAware Transoceanic
Sat 07:13:09 AM 36.0833 173.2167 89° East 590 679 39,000  Level Oakland Oceanic (ODAPS)
Sat 07:14:00 AM 36.0927 173.2558 89° East 609 701 39,000  Level FlightAware Transoceanic
Sat 07:15:00 AM 36.0953 173.4485 89° East 609 701 39,000  Level FlightAware Transoceanic
Sat 07:16:00 AM 36.0976 173.6413 89° East 609 701 39,000  Level FlightAware Transoceanic
Sat 07:17:00 AM 36.0995 173.8341 89° East 609 701 39,000  Level FlightAware Transoceanic
Sat 07:18:00 AM 36.1012 174.0269 89° East 609 701 39,000  Level FlightAware Transoceanic
Sat 07:19:00 AM 36.0960 174.3477 90° East 590 679 39,000  Level FlightAware Transoceanic
Sat 07:20:00 AM 36.0971 174.5363 90° East 590 679 39,000  Level FlightAware Transoceanic
Sat 07:21:00 AM 36.0979 174.7248 90° East 590 679 39,000  Level FlightAware Transoceanic
Sat 07:22:00 AM 36.0984 174.9133 90° East 590 679 39,000  Level FlightAware Transoceanic
Sat 07:23:00 AM 36.0985 175.1019 90° East 590 679 39,000  Level FlightAware Transoceanic
Sat 07:24:00 AM 36.0984 175.2904 90° East 590 679 39,000  Level FlightAware Transoceanic
Sat 07:25:00 AM 36.0980 175.4790 90° East 590 679 39,000  Level FlightAware Transoceanic
Sat 07:26:00 AM 36.0974 175.6675 90° East 590 679 39,000  Level FlightAware Transoceanic
Sat 07:27:00 AM 36.0964 175.8560 90° East 590 679 39,000  Level FlightAware Transoceanic
Sat 07:27:01 AM 36.1000 175.9667 91° East 567 652 39,000  Level Oakland Oceanic (ODAPS)
Sat 07:28:00 AM 36.0951 176.0446 91° East 590 679 39,000  Level FlightAware Transoceanic
Sat 07:29:00 AM 36.0935 176.2331 91° East 590 679 39,000  Level FlightAware Transoceanic
Sat 07:30:00 AM 36.0916 176.4216 91° East 590 679 39,000  Level FlightAware Transoceanic
Sat 07:31:00 AM 36.0895 176.6101 91° East 590 679 39,000  Level FlightAware Transoceanic
Sat 07:32:00 AM 36.0870 176.7986 91° East 590 679 39,000  Level FlightAware Transoceanic
Sat 07:33:00 AM 36.0852 177.1200 91° East 567 652 39,000  Level FlightAware Transoceanic
Sat 07:34:00 AM 36.0817 177.3122 91° East 567 652 39,000  Level FlightAware Transoceanic
Sat 07:35:00 AM 36.0778 177.5043 91° East 567 652 39,000  Level FlightAware Transoceanic
Sat 07:36:00 AM 36.0737 177.6965 92° East 567 652 39,000  Level FlightAware Transoceanic
Sat 07:37:00 AM 36.0692 177.8886 92° East 567 652 39,000  Level FlightAware Transoceanic
Sat 07:38:00 AM 36.0645 178.0807 92° East 567 652 39,000  Level FlightAware Transoceanic
Sat 07:39:00 AM 36.0594 178.2727 92° East 567 652 39,000  Level FlightAware Transoceanic
Sat 07:40:00 AM 36.0540 178.4648 92° East 567 652 39,000  Level FlightAware Transoceanic
Sat 07:40:56 AM 36.0500 178.6000 92° East 549 632 39,000  Level Oakland Oceanic (ODAPS)
Sat 07:41:00 AM 36.0483 178.6568 92° East 567 652 39,000  Level FlightAware Transoceanic
Sat 07:42:00 AM 36.0424 178.8488 92° East 567 652 39,000  Level FlightAware Transoceanic
Sat 07:43:00 AM 36.0361 179.0407 92° East 567 652 39,000  Level FlightAware Transoceanic
Sat 07:44:00 AM 36.0295 179.2327 92° East 567 652 39,000  Level FlightAware Transoceanic
Sat 07:45:00 AM 36.0225 179.4245 93° East 567 652 39,000  Level FlightAware Transoceanic
Sat 07:46:00 AM 36.0153 179.6164 93° East 567 652 39,000  Level FlightAware Transoceanic
Sat 07:47:00 AM 36.0081 179.8001 93° East 549 632 39,000  Level FlightAware Transoceanic
Sat 07:48:00 AM 36.0000 -180.0000 87° East 549 632 39,000 146 Level FlightAware Transoceanic
Sat 07:48:22 AM 36.0000 180.0000 87° East 546 628 39,200  Climbing Oakland Oceanic (ODAPS)
Sat 07:49:00 AM 36.0077 -179.8116 87° East 549 632 39,000 -122 Descending FlightAware Transoceanic
Sat 07:50:00 AM 36.0151 -179.6232 87° East 549 632 39,000  Level FlightAware Transoceanic
Sat 07:51:00 AM 36.0222 -179.4348 87° East 549 632 39,000  Level FlightAware Transoceanic
Sat 07:52:00 AM 36.0290 -179.2463 87° East 549 632 39,000  Level FlightAware Transoceanic
Sat 07:53:00 AM 36.0355 -179.0578 88° East 549 632 39,000 100 Level FlightAware Transoceanic
Sat 07:54:00 AM 36.0410 -178.8902 88° East 546 628 39,200 577 Climbing FlightAware Transoceanic
Sat 07:54:44 AM 36.0500 -178.8167 88° East 544 626 40,000  Climbing Oakland Oceanic (ODAPS)
Sat 07:55:00 AM 36.0469 -178.7052 88° East 546 628 39,200 -632 Descending FlightAware Transoceanic
Sat 07:56:00 AM 36.0524 -178.5201 88° East 546 628 39,200  Level FlightAware Transoceanic
Sat 07:57:00 AM 36.0577 -178.3350 88° East 546 628 39,200  Level FlightAware Transoceanic
Sat 07:58:00 AM 36.0627 -178.1498 88° East 546 628 39,200  Level FlightAware Transoceanic
Sat 07:59:00 AM 36.0674 -177.9647 88° East 546 628 39,200 400 Level FlightAware Transoceanic
Sat 08:00:00 AM 36.0754 -177.8791 88° East 544 626 40,000 400 Climbing FlightAware Transoceanic
Sat 08:01:00 AM 36.0796 -177.6915 88° East 544 626 40,000  Level FlightAware Transoceanic
Sat 08:02:00 AM 36.0835 -177.5039 89° East 544 626 40,000  Level FlightAware Transoceanic
Sat 08:03:00 AM 36.0871 -177.3163 89° East 544 626 40,000  Level FlightAware Transoceanic
Sat 08:04:00 AM 36.0905 -177.1287 89° East 544 626 40,000  Level FlightAware Transoceanic
Sat 08:05:00 AM 36.0935 -176.9410 89° East 544 626 40,000  Level FlightAware Transoceanic
Sat 08:06:00 AM 36.0962 -176.7533 89° East 544 626 40,000  Level FlightAware Transoceanic
Sat 08:07:00 AM 36.0987 -176.5657 89° East 544 626 40,000  Level FlightAware Transoceanic
Sat 08:08:00 AM 36.1008 -176.3780 89° East 544 626 40,000  Level FlightAware Transoceanic
Sat 08:08:36 AM 36.1000 -176.2667 89° East 539 620 40,000  Level Oakland Oceanic (ODAPS)
Sat 08:09:00 AM 36.1027 -176.1903 89° East 544 626 40,000  Level FlightAware Transoceanic
Sat 08:10:00 AM 36.1043 -176.0026 89° East 544 626 40,000  Level FlightAware Transoceanic
Sat 08:11:00 AM 36.1055 -175.8149 90° East 544 626 40,000  Level FlightAware Transoceanic
Sat 08:12:00 AM 36.1065 -175.6271 90° East 544 626 40,000  Level FlightAware Transoceanic
Sat 08:13:00 AM 36.1072 -175.4394 90° East 544 626 40,000  Level FlightAware Transoceanic
Sat 08:14:00 AM 36.1061 -175.1600 90° East 539 620 40,000  Level FlightAware Transoceanic
Sat 08:15:00 AM 36.1061 -174.9756 90° East 539 620 40,000  Level FlightAware Transoceanic
Sat 08:16:00 AM 36.1058 -174.7911 90° East 539 620 40,000  Level FlightAware Transoceanic
Sat 08:17:00 AM 36.1053 -174.6067 90° East 539 620 40,000  Level FlightAware Transoceanic
Sat 08:18:00 AM 36.1045 -174.4223 90° East 539 620 40,000  Level FlightAware Transoceanic
Sat 08:19:00 AM 36.1034 -174.2378 90° East 539 620 40,000  Level FlightAware Transoceanic
Sat 08:20:00 AM 36.1020 -174.0534 91° East 539 620 40,000  Level FlightAware Transoceanic
Sat 08:21:00 AM 36.1003 -173.8690 91° East 539 620 40,000  Level FlightAware Transoceanic
Sat 08:22:00 AM 36.0984 -173.6845 91° East 539 620 40,000  Level FlightAware Transoceanic
Sat 08:22:28 AM 36.1000 -173.7000 91° East 543 625 40,000  Level Oakland Oceanic (ODAPS)
Sat 08:23:00 AM 36.0961 -173.5001 91° East 539 620 40,000  Level FlightAware Transoceanic
Sat 08:24:00 AM 36.0936 -173.3157 91° East 539 620 40,000  Level FlightAware Transoceanic
Sat 08:25:00 AM 36.0908 -173.1313 91° East 539 620 40,000  Level FlightAware Transoceanic
Sat 08:26:00 AM 36.0877 -172.9470 91° East 539 620 40,000  Level FlightAware Transoceanic
Sat 08:27:00 AM 36.0843 -172.7626 91° East 539 620 40,000  Level FlightAware Transoceanic
Sat 08:28:00 AM 36.0819 -172.5891 91° East 543 625 40,000  Level FlightAware Transoceanic
Sat 08:29:00 AM 36.0779 -172.4040 92° East 543 625 40,000  Level FlightAware Transoceanic
Sat 08:30:00 AM 36.0737 -172.2189 92° East 543 625 40,000  Level FlightAware Transoceanic
Sat 08:31:00 AM 36.0691 -172.0339 92° East 543 625 40,000  Level FlightAware Transoceanic
Sat 08:32:00 AM 36.0642 -171.8488 92° East 543 625 40,000  Level FlightAware Transoceanic
Sat 08:33:00 AM 36.0591 -171.6638 92° East 543 625 40,000  Level FlightAware Transoceanic
Sat 08:34:00 AM 36.0536 -171.4788 92° East 543 625 40,000  Level FlightAware Transoceanic
Sat 08:35:00 AM 36.0479 -171.2939 92° East 543 625 40,000  Level FlightAware Transoceanic
Sat 08:36:00 AM 36.0419 -171.1089 92° East 543 625 40,000  Level FlightAware Transoceanic
Sat 08:36:19 AM 36.0333 -171.0833 92° East 559 643 40,000  Level Oakland Oceanic (ODAPS)
Sat 08:37:00 AM 36.0356 -170.9240 92° East 543 625 40,000  Level FlightAware Transoceanic
Sat 08:38:00 AM 36.0291 -170.7392 93° East 543 625 40,000  Level FlightAware Transoceanic
Sat 08:39:00 AM 36.0222 -170.5543 93° East 543 625 40,000  Level FlightAware Transoceanic
Sat 08:40:00 AM 36.0151 -170.3695 93° East 543 625 40,000  Level FlightAware Transoceanic
Sat 08:41:00 AM 36.0077 -170.1847 93° East 543 625 40,000  Level FlightAware Transoceanic
Sat 08:41:59 AM 36.0000 -170.0000 87° East 562 647 40,000  Level Oakland Oceanic (ODAPS)
Sat 08:42:00 AM 36.0000 -170.0000 87° East 559 643 40,000  Level FlightAware Transoceanic
Sat 08:43:00 AM 36.0078 -169.8080 87° East 559 643 40,000  Level FlightAware Transoceanic
Sat 08:44:00 AM 36.0154 -169.6160 87° East 559 643 40,000  Level FlightAware Transoceanic
Sat 08:45:00 AM 36.0226 -169.4239 87° East 559 643 40,000  Level FlightAware Transoceanic
Sat 08:46:00 AM 36.0295 -169.2318 88° East 559 643 40,000  Level FlightAware Transoceanic
Sat 08:47:00 AM 36.0361 -169.0397 88° East 559 643 40,000  Level FlightAware Transoceanic
Sat 08:48:00 AM 36.0424 -168.8475 88° East 562 647 40,000  Level FlightAware Transoceanic
Sat 08:49:00 AM 36.0484 -168.6553 88° East 562 647 40,000  Level FlightAware Transoceanic
Sat 08:50:00 AM 36.0541 -168.4631 88° East 562 647 40,000  Level FlightAware Transoceanic
Sat 08:50:11 AM 36.0500 -168.4000 88° East 569 655 40,000  Level Oakland Oceanic (ODAPS)
Sat 08:51:00 AM 36.0595 -168.2709 88° East 562 647 40,000  Level FlightAware Transoceanic
Sat 08:52:00 AM 36.0645 -168.0786 88° East 562 647 40,000  Level FlightAware Transoceanic
Sat 08:53:00 AM 36.0693 -167.8863 88° East 562 647 40,000  Level FlightAware Transoceanic
Sat 08:54:00 AM 36.0738 -167.6940 88° East 562 647 40,000  Level FlightAware Transoceanic
Sat 08:55:00 AM 36.0779 -167.5016 89° East 562 647 40,000  Level FlightAware Transoceanic
Sat 08:56:00 AM 36.0782 -167.2282 89° East 569 655 40,000  Level FlightAware Transoceanic
Sat 08:57:00 AM 36.0818 -167.0328 89° East 569 655 40,000  Level FlightAware Transoceanic
Sat 08:58:00 AM 36.0851 -166.8374 89° East 569 655 40,000  Level FlightAware Transoceanic
Sat 08:59:00 AM 36.0881 -166.6420 89° East 569 655 40,000  Level FlightAware Transoceanic
Sat 09:00:00 AM 36.0907 -166.4466 89° East 569 655 40,000  Level FlightAware Transoceanic
Sat 09:01:00 AM 36.0930 -166.2511 89° East 569 655 40,000  Level FlightAware Transoceanic
Sat 09:02:00 AM 36.0951 -166.0557 89° East 569 655 40,000  Level FlightAware Transoceanic
Sat 09:03:00 AM 36.0967 -165.8602 89° East 569 655 40,000  Level FlightAware Transoceanic
Sat 09:04:00 AM 36.0981 -165.6647 90° East 569 655 40,000  Level FlightAware Transoceanic
Sat 09:04:03 AM 36.1000 -165.7167 90° East 562 647 40,000  Level Oakland Oceanic (ODAPS)
Sat 09:05:00 AM 36.0992 -165.4693 90° East 569 655 40,000  Level FlightAware Transoceanic
Sat 09:06:00 AM 36.0999 -165.2738 90° East 569 655 40,000  Level FlightAware Transoceanic
Sat 09:07:00 AM 36.1003 -165.0783 90° East 569 655 40,000  Level FlightAware Transoceanic
Sat 09:08:00 AM 36.1004 -164.8828 90° East 569 655 40,000  Level FlightAware Transoceanic
Sat 09:09:00 AM 36.1002 -164.6873 90° East 569 655 40,000  Level FlightAware Transoceanic
Sat 09:10:00 AM 36.1017 -164.5725 90° East 562 647 40,000  Level FlightAware Transoceanic
Sat 09:11:00 AM 36.1010 -164.3818 90° East 562 647 40,000  Level FlightAware Transoceanic
Sat 09:12:00 AM 36.0999 -164.1911 90° East 562 647 40,000  Level FlightAware Transoceanic
Sat 09:13:00 AM 36.0985 -164.0004 91° East 562 647 40,000  Level FlightAware Transoceanic
Sat 09:14:00 AM 36.0969 -163.8097 91° East 562 647 40,000  Level FlightAware Transoceanic
Sat 09:15:00 AM 36.0949 -163.6191 91° East 562 647 40,000  Level FlightAware Transoceanic
Sat 09:16:00 AM 36.0926 -163.4284 91° East 562 647 40,000  Level FlightAware Transoceanic
Sat 09:17:00 AM 36.0900 -163.2378 91° East 562 647 40,000  Level FlightAware Transoceanic
Sat 09:17:55 AM 36.0833 -163.0833 91° East 547 629 40,000  Level Oakland Oceanic (ODAPS)
Sat 09:18:00 AM 36.0871 -163.0471 91° East 562 647 40,000  Level FlightAware Transoceanic
Sat 09:19:00 AM 36.0839 -162.8565 91° East 562 647 40,000  Level FlightAware Transoceanic
Sat 09:20:00 AM 36.0805 -162.6659 91° East 562 647 40,000  Level FlightAware Transoceanic
Sat 09:21:00 AM 36.0767 -162.4753 91° East 562 647 40,000  Level FlightAware Transoceanic
Sat 09:22:00 AM 36.0726 -162.2848 92° East 562 647 40,000  Level FlightAware Transoceanic
Sat 09:23:00 AM 36.0682 -162.0942 92° East 562 647 40,000  Level FlightAware Transoceanic
Sat 09:24:00 AM 36.0613 -161.9263 92° East 547 629 40,000  Level FlightAware Transoceanic
Sat 09:25:00 AM 36.0566 -161.7336 92° East 547 629 40,000  Level FlightAware Transoceanic
Sat 09:26:00 AM 36.0515 -161.5408 92° East 547 629 40,000  Level FlightAware Transoceanic
Sat 09:27:00 AM 36.0462 -161.3481 92° East 547 629 40,000  Level FlightAware Transoceanic
Sat 09:28:00 AM 36.0405 -161.1555 92° East 547 629 40,000  Level FlightAware Transoceanic
Sat 09:29:00 AM 36.0345 -160.9628 92° East 547 629 40,000  Level FlightAware Transoceanic
Sat 09:30:00 AM 36.0282 -160.7702 92° East 547 629 40,000  Level FlightAware Transoceanic
Sat 09:31:00 AM 36.0216 -160.5776 92° East 547 629 40,000  Level FlightAware Transoceanic
Sat 09:31:48 AM 36.0167 -160.5000 92° East 553 636 40,000  Level Oakland Oceanic (ODAPS)
Sat 09:32:00 AM 36.0147 -160.3850 93° East 547 629 40,000  Level FlightAware Transoceanic
Sat 09:33:00 AM 36.0075 -160.1925 93° East 547 629 40,000  Level FlightAware Transoceanic
Sat 09:34:00 AM 36.0000 -160.0000 80° East 547 629 40,000  Level FlightAware Transoceanic
Sat 09:34:28 AM 36.0000 -160.0000 80° East 559 643 40,000  Level Oakland Oceanic (ODAPS)
Sat 09:35:00 AM 36.0270 -159.8104 80° East 547 629 40,000  Level FlightAware Transoceanic
Sat 09:36:00 AM 36.0538 -159.6207 80° East 547 629 40,000  Level FlightAware Transoceanic
Sat 09:37:00 AM 36.0802 -159.4309 80° East 547 629 40,000  Level FlightAware Transoceanic
Sat 09:38:00 AM 36.1063 -159.2409 80° East 553 636 40,000  Level FlightAware Transoceanic
Sat 09:39:00 AM 36.1321 -159.0509 81° East 553 636 40,000  Level FlightAware Transoceanic
Sat 09:40:00 AM 36.1577 -158.8607 81° East 559 643 40,000  Level FlightAware Transoceanic
Sat 09:41:00 AM 36.1829 -158.6703 81° East 559 643 40,000  Level FlightAware Transoceanic
Sat 09:42:00 AM 36.2078 -158.4799 81° East 559 643 40,000  Level FlightAware Transoceanic
Sat 09:43:00 AM 36.2325 -158.2893 81° East 559 643 40,000  Level FlightAware Transoceanic
Sat 09:44:00 AM 36.2568 -158.0986 81° East 559 643 40,000  Level FlightAware Transoceanic
Sat 09:45:00 AM 36.2808 -157.9078 81° East 559 643 40,000  Level FlightAware Transoceanic
Sat 09:45:39 AM 36.2833 -157.8833 81° East 565 650 40,000  Level Oakland Oceanic (ODAPS)
Sat 09:46:00 AM 36.3045 -157.7169 81° East 559 643 40,000  Level FlightAware Transoceanic
Sat 09:47:00 AM 36.3279 -157.5258 81° East 559 643 40,000  Level FlightAware Transoceanic
Sat 09:48:00 AM 36.3511 -157.3347 82° East 559 643 40,000  Level FlightAware Transoceanic
Sat 09:49:00 AM 36.3739 -157.1434 82° East 559 643 40,000  Level FlightAware Transoceanic
Sat 09:50:00 AM 36.3964 -156.9520 82° East 559 643 40,000  Level FlightAware Transoceanic
Sat 09:51:00 AM 36.4186 -156.7605 82° East 559 643 40,000  Level FlightAware Transoceanic
Sat 09:52:00 AM 36.4423 -156.5486 82° East 565 650 40,000  Level FlightAware Transoceanic
Sat 09:53:00 AM 36.4638 -156.3575 82° East 565 650 40,000  Level FlightAware Transoceanic
Sat 09:54:00 AM 36.4850 -156.1662 82° East 565 650 40,000  Level FlightAware Transoceanic
Sat 09:55:00 AM 36.5059 -155.9749 82° East 565 650 40,000  Level FlightAware Transoceanic
Sat 09:56:00 AM 36.5265 -155.7835 82° East 565 650 40,000  Level FlightAware Transoceanic
Sat 09:57:00 AM 36.5467 -155.5919 83° East 565 650 40,000  Level FlightAware Transoceanic
Sat 09:58:00 AM 36.5667 -155.4003 83° East 565 650 40,000  Level FlightAware Transoceanic
Sat 09:59:00 AM 36.5864 -155.2086 83° East 565 650 40,000  Level FlightAware Transoceanic
Sat 09:59:31 AM 36.5833 -155.2167 83° East 567 652 40,000  Level Oakland Oceanic (ODAPS)
Sat 10:00:00 AM 36.6057 -155.0168 83° East 565 650 40,000  Level FlightAware Transoceanic
Sat 10:01:00 AM 36.6248 -154.8248 83° East 565 650 40,000  Level FlightAware Transoceanic
Sat 10:02:00 AM 36.6435 -154.6328 83° East 565 650 40,000  Level FlightAware Transoceanic
Sat 10:03:00 AM 36.6619 -154.4407 83° East 565 650 40,000  Level FlightAware Transoceanic
Sat 10:04:00 AM 36.6801 -154.2485 83° East 565 650 40,000  Level FlightAware Transoceanic
Sat 10:05:00 AM 36.6956 -154.0625 83° East 567 652 40,000  Level FlightAware Transoceanic
Sat 10:06:00 AM 36.7132 -153.8699 84° East 567 652 40,000  Level FlightAware Transoceanic
Sat 10:07:00 AM 36.7305 -153.6771 84° East 567 652 40,000  Level FlightAware Transoceanic
Sat 10:08:00 AM 36.7475 -153.4843 84° East 567 652 40,000  Level FlightAware Transoceanic
Sat 10:09:00 AM 36.7642 -153.2913 84° East 567 652 40,000  Level FlightAware Transoceanic
Sat 10:10:00 AM 36.7806 -153.0983 84° East 567 652 40,000  Level FlightAware Transoceanic
Sat 10:11:00 AM 36.7966 -152.9052 84° East 567 652 40,000  Level FlightAware Transoceanic
Sat 10:12:00 AM 36.8124 -152.7121 84° East 567 652 40,000  Level FlightAware Transoceanic
Sat 10:13:00 AM 36.8278 -152.5188 84° East 567 652 40,000  Level FlightAware Transoceanic
Sat 10:13:23 AM 36.8333 -152.5667 85° East 555 639 40,000  Level Oakland Oceanic (ODAPS)
Sat 10:14:00 AM 36.8430 -152.3255 84° East 567 652 40,000  Level FlightAware Transoceanic
Sat 10:15:00 AM 36.8578 -152.1320 85° East 567 652 40,000  Level FlightAware Transoceanic
Sat 10:16:00 AM 36.8723 -151.9386 85° East 567 652 40,000  Level FlightAware Transoceanic
Sat 10:17:00 AM 36.8865 -151.7450 85° East 567 652 40,000  Level FlightAware Transoceanic
Sat 10:18:00 AM 36.9003 -151.5514 85° East 567 652 40,000  Level FlightAware Transoceanic
Sat 10:19:00 AM 36.9115 -151.4680 85° East 555 639 40,000  Level FlightAware Transoceanic
Sat 10:20:00 AM 36.9236 -151.2847 85° East 555 639 40,000  Level FlightAware Transoceanic
Sat 10:21:00 AM 36.9353 -151.1014 85° East 555 639 40,000  Level FlightAware Transoceanic
Sat 10:22:00 AM 36.9468 -150.9179 86° East 555 639 40,000  Level FlightAware Transoceanic
Sat 10:23:00 AM 36.9580 -150.7345 86° East 555 639 40,000  Level FlightAware Transoceanic
Sat 10:24:00 AM 36.9689 -150.5509 86° East 555 639 40,000  Level FlightAware Transoceanic
Sat 10:25:00 AM 36.9796 -150.3673 86° East 555 639 40,000  Level FlightAware Transoceanic
Sat 10:26:00 AM 36.9899 -150.1837 86° East 555 639 40,000  Level FlightAware Transoceanic
Sat 10:26:49 AM 37.0000 -150.0000 73° East 566 651 40,000  Level Oakland Oceanic (ODAPS)
Sat 10:27:00 AM 37.0000 -150.0000 73° East 555 639 40,000  Level FlightAware Transoceanic
Sat 10:27:15 AM 37.0167 -149.9167 73° East 567 652 40,000  Level Oakland Oceanic (ODAPS)
Sat 10:28:00 AM 37.0463 -149.8131 73° East 555 639 40,000  Level FlightAware Transoceanic
Sat 10:29:00 AM 37.0923 -149.6259 73° East 555 639 40,000  Level FlightAware Transoceanic
Sat 10:30:00 AM 37.1380 -149.4386 73° East 555 639 40,000  Level FlightAware Transoceanic
Sat 10:31:00 AM 37.1834 -149.2509 73° East 555 639 40,000  Level FlightAware Transoceanic
Sat 10:32:00 AM 37.2285 -149.0631 73° East 555 639 40,000  Level FlightAware Transoceanic
Sat 10:33:00 AM 37.2926 -148.7789 73° East 567 652 40,000  Level FlightAware Transoceanic
Sat 10:34:00 AM 37.3375 -148.5885 74° East 567 652 40,000  Level FlightAware Transoceanic
Sat 10:35:00 AM 37.3821 -148.3978 74° East 567 652 40,000  Level FlightAware Transoceanic
Sat 10:36:00 AM 37.4264 -148.2069 74° East 567 652 40,000  Level FlightAware Transoceanic
Sat 10:37:00 AM 37.4704 -148.0158 74° East 567 652 40,000  Level FlightAware Transoceanic
Sat 10:38:00 AM 37.5141 -147.8245 74° East 567 652 40,000  Level FlightAware Transoceanic
Sat 10:39:00 AM 37.5575 -147.6329 74° East 567 652 40,000  Level FlightAware Transoceanic
Sat 10:40:00 AM 37.6006 -147.4412 74° East 567 652 40,000  Level FlightAware Transoceanic
Sat 10:41:00 AM 37.6434 -147.2492 74° East 567 652 40,000  Level FlightAware Transoceanic
Sat 10:41:08 AM 37.6500 -147.2667 74° East 571 657 40,000  Level Oakland Oceanic (ODAPS)
Sat 10:42:00 AM 37.6858 -147.0569 74° East 567 652 40,000  Level FlightAware Transoceanic
Sat 10:43:00 AM 37.7280 -146.8645 75° East 567 652 40,000  Level FlightAware Transoceanic
Sat 10:44:00 AM 37.7698 -146.6718 75° East 567 652 40,000  Level FlightAware Transoceanic
Sat 10:45:00 AM 37.8113 -146.4790 75° East 567 652 40,000  Level FlightAware Transoceanic
Sat 10:46:00 AM 37.8525 -146.2859 75° East 567 652 40,000  Level FlightAware Transoceanic
Sat 10:47:00 AM 37.8991 -146.1072 75° East 571 657 40,000  Level FlightAware Transoceanic
Sat 10:48:00 AM 37.9395 -145.9132 75° East 571 657 40,000  Level FlightAware Transoceanic
Sat 10:49:00 AM 37.9796 -145.7190 75° East 571 657 40,000  Level FlightAware Transoceanic
Sat 10:50:00 AM 38.0194 -145.5246 76° East 571 657 40,000  Level FlightAware Transoceanic
Sat 10:51:00 AM 38.0588 -145.3299 76° East 571 657 40,000  Level FlightAware Transoceanic
Sat 10:52:00 AM 38.0979 -145.1351 76° East 571 657 40,000  Level FlightAware Transoceanic
Sat 10:53:00 AM 38.1367 -144.9400 76° East 571 657 40,000  Level FlightAware Transoceanic
Sat 10:54:00 AM 38.1752 -144.7448 76° East 571 657 40,000  Level FlightAware Transoceanic
Sat 10:55:00 AM 38.2134 -144.5493 76° East 571 657 40,000  Level FlightAware Transoceanic
Sat 10:55:01 AM 38.2000 -144.5833 76° East 561 646 40,000  Level Oakland Oceanic (ODAPS)
Sat 10:56:00 AM 38.2512 -144.3536 76° East 571 657 40,000  Level FlightAware Transoceanic
Sat 10:57:00 AM 38.2887 -144.1578 76° East 571 657 40,000  Level FlightAware Transoceanic
Sat 10:58:00 AM 38.3259 -143.9617 76° East 571 657 40,000  Level FlightAware Transoceanic
Sat 10:59:00 AM 38.3628 -143.7654 77° East 571 657 40,000  Level FlightAware Transoceanic
Sat 11:00:00 AM 38.3993 -143.5690 77° East 571 657 40,000  Level FlightAware Transoceanic
Sat 11:01:00 AM 38.4259 -143.3977 77° East 561 646 40,000  Level FlightAware Transoceanic
Sat 11:02:00 AM 38.4623 -143.1994 77° East 561 646 40,000  Level FlightAware Transoceanic
Sat 11:03:00 AM 38.4985 -143.0008 77° East 561 646 40,000  Level FlightAware Transoceanic
Sat 11:04:00 AM 38.5343 -142.8021 77° East 561 646 40,000  Level FlightAware Transoceanic
Sat 11:05:00 AM 38.5698 -142.6032 77° East 561 646 40,000  Level FlightAware Transoceanic
Sat 11:06:00 AM 38.6049 -142.4041 77° East 561 646 40,000  Level FlightAware Transoceanic
Sat 11:07:00 AM 38.6397 -142.2048 77° East 561 646 40,000  Level FlightAware Transoceanic
Sat 11:08:00 AM 38.6742 -142.0053 78° East 561 646 40,000  Level FlightAware Transoceanic
Sat 11:08:51 AM 38.6833 -141.9333 78° East 553 636 40,000  Level Oakland Oceanic (ODAPS)
Sat 11:09:00 AM 38.7083 -141.8056 78° East 561 646 40,000  Level FlightAware Transoceanic
Sat 11:10:00 AM 38.7421 -141.6057 78° East 561 646 40,000  Level FlightAware Transoceanic
Sat 11:11:00 AM 38.7755 -141.4056 78° East 561 646 40,000  Level FlightAware Transoceanic
Sat 11:12:00 AM 38.8086 -141.2054 78° East 561 646 40,000  Level FlightAware Transoceanic
Sat 11:13:00 AM 38.8414 -141.0049 78° East 561 646 40,000  Level FlightAware Transoceanic
Sat 11:14:00 AM 38.8738 -140.8043 78° East 561 646 40,000  Level FlightAware Transoceanic
Sat 11:15:00 AM 38.8772 -140.7754 78° East 553 636 40,000  Level FlightAware Transoceanic
Sat 11:16:00 AM 38.9084 -140.5818 78° East 553 636 40,000  Level FlightAware Transoceanic
Sat 11:17:00 AM 38.9392 -140.3880 78° East 553 636 40,000  Level FlightAware Transoceanic
Sat 11:18:00 AM 38.9698 -140.1941 79° East 553 636 40,000  Level FlightAware Transoceanic
Sat 11:18:59 AM 39.0000 -140.0000 87° East 556 640 40,000  Level Oakland Oceanic (ODAPS)
Sat 11:19:00 AM 39.0000 -140.0000 87° East 553 636 40,000  Level FlightAware Transoceanic
Sat 11:20:00 AM 39.0085 -139.7963 87° East 553 636 40,000  Level FlightAware Transoceanic
Sat 11:21:00 AM 39.0167 -139.5926 87° East 553 636 40,000  Level FlightAware Transoceanic
Sat 11:22:00 AM 39.0246 -139.3888 87° East 553 636 40,000  Level FlightAware Transoceanic
Sat 11:22:44 AM 39.0333 -139.2667 87° East 559 643 40,000  Level Oakland Oceanic (ODAPS)
Sat 11:23:00 AM 39.0320 -139.1849 87° East 553 636 40,000  Level FlightAware Transoceanic
Sat 11:24:00 AM 39.0391 -138.9811 87° East 553 636 40,000  Level FlightAware Transoceanic
Sat 11:25:00 AM 39.0451 -138.8016 88° East 556 640 40,000  Level FlightAware Transoceanic
Sat 11:26:00 AM 39.0514 -138.6017 88° East 556 640 40,000  Level FlightAware Transoceanic
Sat 11:27:00 AM 39.0574 -138.4018 88° East 556 640 40,000  Level FlightAware Transoceanic
Sat 11:28:00 AM 39.0653 -138.2602 88° East 559 643 40,000  Level FlightAware Transoceanic
Sat 11:29:00 AM 39.0706 -138.0588 88° East 559 643 40,000  Level FlightAware Transoceanic
Sat 11:30:00 AM 39.0756 -137.8574 88° East 559 643 40,000  Level FlightAware Transoceanic
Sat 11:31:00 AM 39.0803 -137.6559 88° East 559 643 40,000  Level FlightAware Transoceanic
Sat 11:32:00 AM 39.0846 -137.4545 88° East 559 643 40,000  Level FlightAware Transoceanic
Sat 11:33:00 AM 39.0885 -137.2530 89° East 559 643 40,000  Level FlightAware Transoceanic
Sat 11:34:00 AM 39.0921 -137.0515 89° East 559 643 40,000  Level FlightAware Transoceanic
Sat 11:35:00 AM 39.0954 -136.8499 89° East 559 643 40,000  Level FlightAware Transoceanic
Sat 11:36:00 AM 39.0983 -136.6484 89° East 559 643 40,000  Level FlightAware Transoceanic
Sat 11:36:36 AM 39.1000 -136.5667 89° East 545 627 40,000  Level Oakland Oceanic (ODAPS)
Sat 11:37:00 AM 39.1009 -136.4468 89° East 559 643 40,000  Level FlightAware Transoceanic
Sat 11:38:00 AM 39.1031 -136.2452 89° East 559 643 40,000  Level FlightAware Transoceanic
Sat 11:39:00 AM 39.1050 -136.0436 89° East 559 643 40,000  Level FlightAware Transoceanic
Sat 11:40:00 AM 39.1065 -135.8420 90° East 559 643 40,000  Level FlightAware Transoceanic
Sat 11:41:00 AM 39.1077 -135.6404 90° East 559 643 40,000  Level FlightAware Transoceanic
Sat 11:42:00 AM 39.1091 -135.4070 90° East 545 627 40,000  Level FlightAware Transoceanic
Sat 11:43:00 AM 39.1096 -135.2137 90° East 545 627 40,000  Level FlightAware Transoceanic
Sat 11:44:00 AM 39.1096 -135.0204 90° East 545 627 40,000  Level FlightAware Transoceanic
Sat 11:45:00 AM 39.1094 -134.8271 90° East 545 627 40,000  Level FlightAware Transoceanic
Sat 11:46:00 AM 39.1088 -134.6339 90° East 545 627 40,000  Level FlightAware Transoceanic
Sat 11:47:00 AM 39.1080 -134.4406 90° East 545 627 40,000  Level FlightAware Transoceanic
Sat 11:48:00 AM 39.1068 -134.2473 91° East 545 627 40,000  Level FlightAware Transoceanic
Sat 11:49:00 AM 39.1053 -134.0540 91° East 545 627 40,000  Level FlightAware Transoceanic
Sat 11:50:00 AM 39.1035 -133.8607 91° East 545 627 40,000  Level FlightAware Transoceanic
Sat 11:50:35 AM 39.1000 -133.8167 91° East 564 649 40,000  Level Oakland Oceanic (ODAPS)
Sat 11:51:00 AM 39.1013 -133.6675 91° East 545 627 40,000  Level FlightAware Transoceanic
Sat 11:52:00 AM 39.0988 -133.4742 91° East 545 627 40,000  Level FlightAware Transoceanic
Sat 11:53:00 AM 39.0961 -133.2810 91° East 545 627 40,000  Level FlightAware Transoceanic
Sat 11:54:00 AM 39.0930 -133.0878 91° East 545 627 40,000  Level FlightAware Transoceanic
Sat 11:55:00 AM 39.0895 -132.8946 91° East 545 627 40,000  Level FlightAware Transoceanic
Sat 11:56:00 AM 39.0819 -132.6103 91° East 564 649 40,000  Level FlightAware Transoceanic
Sat 11:57:00 AM 39.0776 -132.4093 92° East 564 649 40,000  Level FlightAware Transoceanic
Sat 11:58:00 AM 39.0731 -132.2084 92° East 564 649 40,000  Level FlightAware Transoceanic
Sat 11:59:00 AM 39.0681 -132.0074 92° East 564 649 40,000  Level FlightAware Transoceanic
Sat 12:00:00 PM 39.0629 -131.8065 92° East 564 649 40,000  Level FlightAware Transoceanic
Sat 12:01:00 PM 39.0573 -131.6057 92° East 564 649 40,000  Level FlightAware Transoceanic
Sat 12:02:00 PM 39.0513 -131.4048 92° East 564 649 40,000  Level FlightAware Transoceanic
Sat 12:03:00 PM 39.0450 -131.2040 92° East 564 649 40,000  Level FlightAware Transoceanic
Sat 12:04:00 PM 39.0384 -131.0032 93° East 564 649 40,000 759 Level FlightAware Transoceanic
Sat 12:04:19 PM 39.0333 -131.0000 92° East 551 634 41,000  Climbing Oakland Oceanic (ODAPS)
Sat 12:05:00 PM 39.0314 -130.8025 93° East 564 649 40,000 -594 Descending FlightAware Transoceanic
Sat 12:06:00 PM 39.0241 -130.6018 93° East 564 649 40,000  Level FlightAware Transoceanic
Sat 12:07:00 PM 39.0164 -130.4012 93° East 564 649 40,000  Level FlightAware Transoceanic
Sat 12:08:00 PM 39.0084 -130.2006 93° East 564 649 40,000  Level FlightAware Transoceanic
Sat 12:09:00 PM 39.0000 -130.0000 102° East 564 649 40,000  Level FlightAware Transoceanic
Sat 12:09:24 PM 39.0000 -130.0000 102° East 567 652 40,000 1,000 Level Oakland Oceanic (ODAPS)
Sat 12:10:00 PM 38.9689 -129.8112 102° East 551 634 41,000 625 Climbing FlightAware Transoceanic
Sat 12:11:00 PM 38.9375 -129.6226 102° East 551 634 41,000  Level FlightAware Transoceanic
Sat 12:12:00 PM 38.9059 -129.4341 102° East 551 634 41,000  Level FlightAware Transoceanic
Sat 12:13:00 PM 38.8739 -129.2458 102° East 551 634 41,000  Level FlightAware Transoceanic
Sat 12:14:00 PM 38.8416 -129.0577 102° East 551 634 41,000 -500 Level FlightAware Transoceanic
Sat 12:15:00 PM 38.7959 -128.7946 103° East 567 652 40,000 -500 Descending FlightAware Transoceanic
Sat 12:16:00 PM 38.7607 -128.5944 103° East 567 652 40,000  Level FlightAware Transoceanic
Sat 12:17:00 PM 38.7251 -128.3944 103° East 567 652 40,000  Level FlightAware Transoceanic
Sat 12:18:00 PM 38.6892 -128.1946 103° East 567 652 40,000  Level FlightAware Transoceanic
Sat 12:18:06 PM 38.7000 -128.3000 103° East 557 641 40,000  Level Oakland Oceanic (ODAPS)
Sat 12:19:00 PM 38.6530 -127.9950 103° East 567 652 40,000  Level FlightAware Transoceanic
Sat 12:20:00 PM 38.6164 -127.7956 103° East 567 652 40,000  Level FlightAware Transoceanic
Sat 12:21:00 PM 38.5794 -127.5964 103° East 567 652 40,000  Level FlightAware Transoceanic
Sat 12:22:00 PM 38.5422 -127.3974 104° East 567 652 40,000  Level FlightAware Transoceanic
Sat 12:22:19 PM 38.5431 -127.4931 111° Southeast 549 632 40,000  Level Oakland Center
Sat 12:23:00 PM 38.5046 -127.1986 104° East 567 652 40,000 -98 Level FlightAware Transoceanic
Sat 12:23:20 PM 38.5086 -127.3039 103° East 549 632 39,900  Descending Oakland Center
Sat 12:24:00 PM 38.5009 -127.1852 103° East 557 641 40,000 98 Climbing FlightAware Transoceanic
Sat 12:24:21 PM 38.4719 -127.1133 104° East 553 636 40,000  Level Oakland Center
Sat 12:25:00 PM 38.4667 -127.0000 111° Southeast 557 641 40,000 -98 Level FlightAware Transoceanic
Sat 12:25:22 PM 38.4294 -126.9269 106° East 551 634 39,900  Descending Oakland Center
Sat 12:26:00 PM 38.4094 -126.8114 111° Southeast 557 641 40,000 98 Climbing FlightAware Transoceanic
Sat 12:26:23 PM 38.3675 -126.7447 113° Southeast 558 642 40,000  Level Oakland Center
Sat 12:27:00 PM 38.3518 -126.6232 111° Southeast 557 641 40,000 -98 Level FlightAware Transoceanic
Sat 12:27:24 PM 38.3028 -126.5647 115° Southeast 561 646 39,900 -71 Descending Oakland Center
Sat 12:28:25 PM 38.2356 -126.3858 116° Southeast 562 647 39,900 49 Level Oakland Center
Sat 12:29:26 PM 38.1697 -126.2081 115° Southeast 566 651 40,000  Climbing Oakland Center
Sat 12:30:27 PM 38.1039 -126.0281 115° Southeast 565 650 39,900 -49 Descending Oakland Center
Sat 12:31:29 PM 38.0236 -125.8131 115° Southeast 563 648 39,900 49 Level Oakland Center
Sat 12:32:30 PM 37.9564 -125.6339 115° Southeast 565 650 40,000 49 Climbing Oakland Center
Sat 12:33:31 PM 37.8875 -125.4558 116° Southeast 566 651 40,000  Level Oakland Center
Sat 12:34:32 PM 37.8217 -125.2756 115° Southeast 567 652 40,000 443 Level Oakland Center
Sat 12:35:33 PM 37.7531 -125.0953 116° Southeast 570 656 40,900 492 Climbing Oakland Center
Sat 12:36:34 PM 37.6847 -124.9175 116° Southeast 568 654 41,000  Climbing Oakland Center
Sat 12:37:36 PM 37.6167 -124.7378 116° Southeast 570 656 40,900 -49 Descending Oakland Center
Sat 12:38:37 PM 37.5486 -124.5603 116° Southeast 568 654 40,900 49 Level Oakland Center
Sat 12:39:38 PM 37.4794 -124.3808 116° Southeast 571 657 41,000  Climbing Oakland Center
Sat 12:40:39 PM 37.4100 -124.2025 116° Southeast 571 657 40,900 -49 Descending Oakland Center
Sat 12:41:41 PM 37.3264 -123.9878 116° Southeast 571 657 40,900  Level Oakland Center
Sat 12:42:42 PM 37.2525 -123.8072 117° Southeast 583 671 40,900 26 Level Oakland Center
Sat 12:45:00 PM 37.1430 -123.5325 117° Southeast  Level FlightAware Approximate
Sat 12:45:28 PM 37.0506 -123.3314 117° Southeast 579 666 41,000  Level Los Angeles Center
Sat 12:46:29 PM 36.9794 -123.1514 116° Southeast 578 665 41,000  Level Los Angeles Center
Sat 12:47:31 PM 36.9086 -122.9708 116° Southeast 579 666 41,000 -43 Level Los Angeles Center
Sat 12:48:49 PM 36.8253 -122.7369 114° Southeast 577 664 40,900  Descending Oakland Center
Sat 12:49:50 PM 36.7372 -122.5239 117° Southeast 580 667 41,000 49 Climbing Oakland Center
Sat 12:50:51 PM 36.6642 -122.3486 117° Southeast 574 661 41,000 -49 Level Oakland Center
Sat 12:51:52 PM 36.5906 -122.1744 118° Southeast 573 659 40,900  Descending Oakland Center
Sat 12:52:54 PM 36.5169 -121.9961 117° Southeast 586 674 41,000  Climbing Oakland Center
Sat 12:53:55 PM 36.4428 -121.8214 118° Southeast 578 665 40,900 -49 Descending Oakland Center
Sat 12:54:56 PM 36.3719 -121.6553 118° Southeast 575 662 40,900  Level Oakland Center
Sat 12:55:57 PM 36.2936 -121.4833 119° Southeast 578 665 40,900 49 Level Oakland Center
Sat 12:56:58 PM 36.2044 -121.3211 124° Southeast 576 663 41,000 49 Climbing Oakland Center
Sat 12:57:59 PM 36.0967 -121.1264 124° Southeast 573 659 41,000 -49 Level Oakland Center
Sat 12:59:00 PM 36.0086 -120.9639 124° Southeast 570 656 40,900  Descending Oakland Center
Sat 01:00:01 PM 35.9178 -120.8036 125° Southeast 571 657 41,000  Climbing Oakland Center
Sat 01:01:03 PM 35.8264 -120.6419 125° Southeast 575 662 40,900 -49 Descending Oakland Center
Sat 01:02:04 PM 35.7344 -120.4783 125° Southeast 577 664 40,900 -787 Level Oakland Center
Sat 01:03:05 PM 35.6281 -120.3292 131° Southeast 583 671 39,300 -1,421 Descending Oakland Center
Sat 01:03:58 PM 35.5381 -120.2269 137° Southeast 573 659 38,200 -2,035 Descending Los Angeles Center
Sat 01:05:00 PM 35.4178 -120.0844 136° Southeast 562 647 35,400 -2,758 Descending Los Angeles Center
Sat 01:06:02 PM 35.3056 -119.9547 137° Southeast 551 634 32,500 -3,000 Descending Los Angeles Center
Sat 01:07:04 PM 35.1758 -119.8064 137° Southeast 531 611 29,200 -2,829 Descending Los Angeles Center
Sat 01:08:05 PM 35.0736 -119.6886 137° Southeast 508 585 26,700 -2,098 Descending Los Angeles Center
Sat 01:09:07 PM 34.9758 -119.5772 137° Southeast 485 558 24,900 -1,790 Descending Los Angeles Center
Sat 01:10:09 PM 34.8839 -119.4719 137° Southeast 458 527 23,000 -1,839 Descending Los Angeles Center
Sat 01:11:11 PM 34.7939 -119.3711 137° Southeast 442 509 21,100 -1,707 Descending Los Angeles Center
Sat 01:12:12 PM 34.7072 -119.2742 137° Southeast 428 493 19,500 -1,659 Descending Los Angeles Center
Sat 01:13:14 PM 34.6108 -119.1664 137° Southeast 410 472 17,700 -1,306 Descending Los Angeles Center
Sat 01:14:16 PM 34.5292 -119.0722 136° Southeast 408 470 16,800 -968 Descending Los Angeles Center
Sat 01:15:18 PM 34.4497 -118.9839 137° Southeast 391 450 15,700 -1,073 Descending Los Angeles Center
Sat 01:16:19 PM 34.3717 -118.8983 138° Southeast 380 437 14,600 -1,024 Descending Los Angeles Center
Sat 01:17:21 PM 34.2822 -118.8539 158° South 348 400 13,600 -1,151 Descending Los Angeles Center
Sat 01:22:50 PM 34.0142 -118.4992 158° South 261 300 7,100 -1,166 Descending FlightAware ADS-B
Sat 01:23:11 PM 34.0118 -118.4702 96° East 262 302 6,800 -889 Descending FlightAware ADS-B
Sat 01:23:44 PM 34.0130 -118.4183 88° East 262 302 6,300 -1,183 Descending FlightAware ADS-B
Sat 01:24:22 PM 34.0185 -118.3699 82° East 253 291 5,400 -1,424 Descending FlightAware ADS-B
Sat 01:24:43 PM 34.0219 -118.3416 82° East 251 289 4,900 -986 Descending FlightAware ADS-B
Sat 01:25:35 PM 34.0317 -118.2783 82° East 253 291 4,200 -895 Descending Los Angeles Center
Sat 01:26:37 PM 34.0383 -118.1978 84° East 244 281 3,200 -829 Descending Los Angeles Center
Sat 01:27:38 PM 33.9914 -118.1761 159° South 205 236 2,500 -488 Descending Los Angeles Center
Sat 01:28:40 PM 33.9692 -118.2317 244° Southwest 172 198 2,200 -145 Descending Los Angeles Center
Sat 01:29:42 PM 33.9650 -118.2819 264° West 160 184 2,200 -387 Level Los Angeles Center
Sat 01:30:44 PM 33.9603 -118.3322 264° West 156 180 1,400 -774 Descending Los Angeles Center
Sat 01:31:46 PM 33.9556 -118.3814 263° West 151 174 600 -585 Descending Los Angeles Center
Sat 01:32:47 PM 33.9489 -118.4386 262° West 152 175 200 -393 Descending Los Angeles Center

Login

Don't have an account? Register now (free) for customized features, flight alerts, and more!